Terminal Aerodrome Forecast
Issued by NWS Sioux Falls, SD

Home | Current Version | Previous Version | Text Only | Print | Product List | Glossary On
Versions: 1 2 3 4 5 6 7 8 9 10 11 12 13 14 15 16
442
FTUS43 KFSD 191720
TAFHON
TAF
KHON 191720Z 1918/2018 17011G16KT P6SM SKC
     FM192000 17015G23KT P6SM SKC
     FM200000 16010KT P6SM SKC
     FM200800 17006KT P6SM FEW200
     FM201400 04008KT P6SM SCT080=

USA.gov is the U.S. government's official web portal to all federal, state and local government web resources and services.